Terminal Aerodrome Forecast
Issued by NWS Chicago, IL

Home | Current Version | Previous Version | Graphics & Text | Print | Product List | Glossary On
Versions: 1 2 3 4 5 6 7 8 9 10 11 12 13 14 15 16
000
FTUS43 KLOT 250200 AAA
TAFRFD
TAF AMD
KRFD 250250Z 2503/2524 28011KT P6SM OVC013
      TEMPO 2503/2504 -DZ BKN008
     FM250400 28012KT P6SM SCT009 OVC013
     FM251100 23012KT P6SM BKN025
     FM251800 22014KT P6SM SCT015 BKN200
     FM252100 20013KT P6SM FEW020 BKN200=

USA.gov is the U.S. government's official web portal to all federal, state and local government web resources and services.